createdAt,value
2018-11-10T00:02:30.195Z,12.59
2018-11-10T00:05:00.321Z,12.64
2018-11-10T00:07:30.858Z,12.51
2018-11-10T00:10:00.891Z,12.47
2018-11-10T00:12:31.510Z,12.53
2018-11-10T00:15:01.238Z,12.45
2018-11-10T00:17:31.421Z,12.39
2018-11-10T00:20:02.192Z,12.39
2018-11-10T00:22:32.105Z,12.45
2018-11-10T00:25:01.941Z,12.42
2018-11-10T00:27:32.121Z,12.45
2018-11-10T00:30:01.414Z,12.50
2018-11-10T00:32:31.647Z,12.57
2018-11-10T00:35:02.406Z,12.52
2018-11-10T00:37:32.031Z,12.43
2018-11-10T00:40:01.807Z,12.52
2018-11-10T00:42:32.024Z,12.70
2018-11-10T00:45:01.529Z,12.49
2018-11-10T00:47:32.242Z,12.55
2018-11-10T00:50:02.403Z,12.51
2018-11-10T00:52:32.354Z,12.43
2018-11-10T00:55:02.401Z,12.41
2018-11-10T00:57:33.108Z,12.43
2018-11-10T01:00:03.321Z,12.53
2018-11-10T01:02:33.425Z,12.57
2018-11-10T01:05:03.886Z,12.50
2018-11-10T01:07:34.884Z,12.48
2018-11-10T01:10:04.508Z,12.46
2018-11-10T01:12:34.459Z,12.52
2018-11-10T01:15:04.766Z,12.49
2018-11-10T01:17:35.078Z,12.43
2018-11-10T01:20:05.694Z,12.30
2018-11-10T01:22:35.883Z,12.25
2018-11-10T01:25:07.323Z,12.20
2018-11-10T01:27:37.133Z,12.25
2018-11-10T01:30:09.441Z,12.22
2018-11-10T01:32:39.888Z,12.24
2018-11-10T01:35:10.389Z,12.25
2018-11-10T01:37:41.115Z,12.25
2018-11-10T01:40:12.958Z,12.18
2018-11-10T01:42:43.960Z,12.10
2018-11-10T01:45:15.747Z,12.13
2018-11-10T01:47:46.180Z,12.11
2018-11-10T01:50:16.460Z,12.05
2018-11-10T01:52:46.921Z,11.95
2018-11-10T01:55:17.562Z,12.09
2018-11-10T01:57:48.263Z,11.97
2018-11-10T02:00:19.569Z,12.03
2018-11-10T02:02:50.779Z,11.98
2018-11-10T02:05:20.904Z,11.92
2018-11-10T02:07:50.931Z,12.07
2018-11-10T02:10:20.868Z,12.11
2018-11-10T02:12:51.352Z,12.24
2018-11-10T02:15:23.599Z,12.08
2018-11-10T02:17:54.738Z,11.98
2018-11-10T02:20:25.012Z,11.95
2018-11-10T02:22:56.168Z,11.88
2018-11-10T02:25:26.343Z,11.88
2018-11-10T02:27:56.106Z,11.91
2018-11-10T02:30:26.459Z,11.83
2018-11-10T02:32:56.484Z,11.96
2018-11-10T02:35:26.844Z,11.87
2018-11-10T02:37:57.718Z,11.75
2018-11-10T02:40:27.800Z,11.68
2018-11-10T02:42:57.625Z,11.73
2018-11-10T02:45:27.602Z,11.68
2018-11-10T02:47:57.977Z,11.68
2018-11-10T02:50:29.122Z,11.54
2018-11-10T02:52:59.102Z,11.63
2018-11-10T02:55:29.711Z,11.46
2018-11-10T02:58:00.481Z,11.38
2018-11-10T03:00:30.269Z,11.25
2018-11-10T03:03:00.283Z,11.51
2018-11-10T03:05:30.503Z,11.55
2018-11-10T03:08:00.140Z,11.37
2018-11-10T03:10:29.892Z,11.27
2018-11-10T03:13:00.074Z,11.42
2018-11-10T03:15:30.328Z,11.33
2018-11-10T03:18:00.883Z,10.95
2018-11-10T03:20:30.850Z,11.14
2018-11-10T03:23:00.560Z,11.23
2018-11-10T03:25:31.209Z,11.23
2018-11-10T03:28:00.906Z,11.21
2018-11-10T03:30:30.789Z,11.33
2018-11-10T03:33:00.756Z,11.36
2018-11-10T03:35:32.123Z,11.24
2018-11-10T03:38:02.060Z,11.22
2018-11-10T03:40:32.696Z,11.16
2018-11-10T03:43:02.397Z,11.04
2018-11-10T03:45:32.272Z,11.18
2018-11-10T03:48:02.743Z,11.06
2018-11-10T03:50:33.793Z,11.06
2018-11-10T03:53:04.846Z,10.98
2018-11-10T03:55:35.019Z,10.97
2018-11-10T03:58:06.578Z,10.90
2018-11-10T04:00:36.491Z,10.78
2018-11-10T04:03:07.416Z,10.80
2018-11-10T04:05:37.644Z,10.85
2018-11-10T04:08:08.474Z,10.73
2018-11-10T04:10:39.132Z,10.64
2018-11-10T04:13:09.359Z,10.62
2018-11-10T04:15:39.430Z,10.46
2018-11-10T04:18:09.736Z,10.37
2018-11-10T04:20:40.201Z,10.50
2018-11-10T04:23:10.240Z,10.48
2018-11-10T04:25:40.177Z,10.36
2018-11-10T04:28:09.931Z,10.32
2018-11-10T04:30:39.805Z,10.27
2018-11-10T04:33:10.340Z,10.36
2018-11-10T04:35:40.549Z,10.23
2018-11-10T04:38:11.194Z,10.23
2018-11-10T04:40:41.331Z,10.21
2018-11-10T04:43:12.202Z,10.21
2018-11-10T04:45:43.476Z,10.19
2018-11-10T04:48:14.130Z,10.23
2018-11-10T04:50:44.148Z,10.14
2018-11-10T04:53:14.755Z,9.97
2018-11-10T04:55:45.001Z,9.92
2018-11-10T04:58:15.378Z,9.90
2018-11-10T05:00:44.931Z,9.99
2018-11-10T05:03:15.291Z,9.95
2018-11-10T05:05:46.847Z,9.90
2018-11-10T05:08:17.411Z,9.80
2018-11-10T05:10:47.758Z,9.79
2018-11-10T05:13:18.062Z,9.80
2018-11-10T05:15:48.366Z,9.82
2018-11-10T05:18:18.688Z,9.67
2018-11-10T05:20:48.838Z,9.59
2018-11-10T05:23:19.917Z,9.48
2018-11-10T05:25:50.818Z,9.48
2018-11-10T05:28:21.709Z,9.53
2018-11-10T05:30:52.318Z,9.68
2018-11-10T05:33:22.569Z,9.65
2018-11-10T05:35:52.734Z,10.28
2018-11-10T05:38:28.609Z,9.61
2018-11-10T05:40:58.766Z,9.60
2018-11-10T05:43:30.370Z,9.48
2018-11-10T05:46:00.310Z,9.24
2018-11-10T05:48:31.441Z,9.12
2018-11-10T05:51:01.412Z,9.15
2018-11-10T05:53:31.342Z,9.12
2018-11-10T05:56:02.037Z,9.06
2018-11-10T05:58:32.017Z,9.13
2018-11-10T06:01:01.968Z,9.28
2018-11-10T06:03:33.476Z,9.36
2018-11-10T06:06:04.190Z,9.60
2018-11-10T06:08:34.568Z,9.73
2018-11-10T06:11:04.766Z,9.82
2018-11-10T06:13:35.770Z,10.00
2018-11-10T06:16:05.542Z,10.15
2018-11-10T06:18:36.609Z,10.38
2018-11-10T06:21:08.106Z,10.42
2018-11-10T06:23:38.708Z,10.46
2018-11-10T06:26:09.805Z,10.83
2018-11-10T06:28:40.766Z,10.74
2018-11-10T06:31:10.569Z,10.66
2018-11-10T06:33:41.247Z,10.59
2018-11-10T06:36:12.911Z,10.60
2018-11-10T06:38:42.792Z,10.91
2018-11-10T06:41:14.119Z,10.84
2018-11-10T06:43:45.183Z,10.90
2018-11-10T06:46:17.018Z,10.97
2018-11-10T06:48:46.850Z,11.12
2018-11-10T06:51:18.070Z,11.03
2018-11-10T06:53:48.082Z,11.50
2018-11-10T06:56:18.526Z,11.54
2018-11-10T06:58:50.016Z,11.24
2018-11-10T07:01:20.025Z,11.24
2018-11-10T07:03:50.649Z,11.05
2018-11-10T07:06:20.621Z,11.11
2018-11-10T07:08:51.112Z,11.13
2018-11-10T07:11:21.945Z,11.35
2018-11-10T07:13:54.043Z,11.79
2018-11-10T07:16:24.524Z,12.45
2018-11-10T07:18:54.315Z,12.15
2018-11-10T07:21:27.331Z,12.07
2018-11-10T07:23:58.836Z,12.90
2018-11-10T07:26:28.535Z,12.62
2018-11-10T07:29:03.591Z,12.54
2018-11-10T07:31:34.420Z,12.34
2018-11-10T07:34:03.800Z,12.57
2018-11-10T07:36:36.463Z,12.68
2018-11-10T07:39:13.818Z,12.55
2018-11-10T07:42:04.230Z,12.62
2018-11-10T07:44:41.427Z,12.36
2018-11-10T07:47:25.756Z,12.11
2018-11-10T07:50:07.766Z,12.31
2018-11-10T07:52:40.409Z,12.69
2018-11-10T07:55:17.056Z,12.74
2018-11-10T07:57:55.902Z,12.72
2018-11-10T08:00:31.862Z,13.06
2018-11-10T08:03:05.714Z,13.52
2018-11-10T08:05:39.331Z,13.73
2018-11-10T08:08:09.885Z,13.77
2018-11-10T08:10:47.332Z,13.68
2018-11-10T08:13:20.463Z,14.01
2018-11-10T08:15:54.750Z,14.56
2018-11-10T08:18:30.693Z,13.99
2018-11-10T08:21:07.425Z,14.48
2018-11-10T08:23:38.890Z,14.17
2018-11-10T08:26:09.067Z,13.98
2018-11-10T08:28:41.988Z,14.16
2018-11-10T08:31:15.199Z,14.66
2018-11-10T08:33:48.045Z,14.62
2018-11-10T08:36:22.407Z,14.85
2018-11-10T08:38:57.252Z,14.30
2018-11-10T08:41:29.624Z,14.88
2018-11-10T08:44:03.803Z,14.98
2018-11-10T08:46:35.685Z,15.28
2018-11-10T08:49:07.094Z,15.01
2018-11-10T08:51:39.937Z,15.06
2018-11-10T08:54:13.453Z,15.56
2018-11-10T08:56:46.871Z,15.38
2018-11-10T08:59:21.615Z,16.11
2018-11-10T09:01:54.960Z,15.63
2018-11-10T09:04:24.227Z,15.92
2018-11-10T09:06:56.009Z,15.51
2018-11-10T09:09:25.344Z,16.04
2018-11-10T09:11:56.763Z,15.77
2018-11-10T09:14:26.527Z,15.84
2018-11-10T09:16:59.482Z,16.08
2018-11-10T09:19:30.479Z,15.66
2018-11-10T09:21:59.995Z,15.43
2018-11-10T09:24:31.202Z,15.98
2018-11-10T09:27:00.330Z,16.23
2018-11-10T09:29:34.759Z,16.26
2018-11-10T09:32:08.783Z,16.30
2018-11-10T09:34:37.846Z,16.73
2018-11-10T09:37:09.320Z,16.75
2018-11-10T09:39:40.326Z,16.43
2018-11-10T09:42:11.230Z,16.04
2018-11-10T09:44:43.153Z,16.25
2018-11-10T09:47:12.400Z,16.10
2018-11-10T09:49:43.576Z,16.03
2018-11-10T09:52:18.587Z,16.87
2018-11-10T09:54:52.542Z,16.83
2018-11-10T09:57:22.838Z,16.71
2018-11-10T09:59:54.603Z,16.38
2018-11-10T10:02:29.584Z,17.00
2018-11-10T10:05:03.078Z,16.85
2018-11-10T10:07:38.153Z,16.40
2018-11-10T10:10:13.846Z,16.69
2018-11-10T10:12:46.200Z,17.26
2018-11-10T10:15:16.515Z,17.08
2018-11-10T10:17:48.862Z,17.27
2018-11-10T10:20:25.110Z,17.40
2018-11-10T10:22:57.543Z,17.20
2018-11-10T10:25:28.231Z,17.37
2018-11-10T10:27:58.124Z,17.17
2018-11-10T10:30:28.388Z,17.77
2018-11-10T10:32:57.975Z,18.00
2018-11-10T10:35:29.177Z,17.78
2018-11-10T10:37:59.872Z,18.50
2018-11-10T10:40:29.757Z,17.63
2018-11-10T10:43:00.835Z,17.63
2018-11-10T10:45:30.331Z,16.94
2018-11-10T10:48:00.621Z,16.97
2018-11-10T10:50:30.574Z,17.22
2018-11-10T10:53:00.595Z,17.19
2018-11-10T10:55:32.342Z,17.42
2018-11-10T10:58:02.223Z,16.94
2018-11-10T11:00:36.443Z,17.15
2018-11-10T11:03:11.082Z,17.39
2018-11-10T11:05:42.920Z,17.28
2018-11-10T11:08:12.699Z,17.43
2018-11-10T11:10:42.351Z,17.79
2018-11-10T11:13:11.967Z,17.90
2018-11-10T11:15:42.299Z,17.40
2018-11-10T11:18:13.226Z,17.86
2018-11-10T11:20:43.992Z,17.56
2018-11-10T11:23:13.503Z,17.67
2018-11-10T11:25:44.251Z,17.25
2018-11-10T11:28:14.212Z,16.93
2018-11-10T11:30:43.787Z,17.53
2018-11-10T11:33:13.732Z,17.66
2018-11-10T11:35:43.444Z,17.48
2018-11-10T11:38:15.148Z,16.91
2018-11-10T11:40:45.055Z,17.67
2018-11-10T11:43:16.718Z,17.61
2018-11-10T11:45:46.416Z,17.99
2018-11-10T11:48:16.287Z,18.07
2018-11-10T11:50:47.356Z,17.96
2018-11-10T11:53:18.795Z,18.32
2018-11-10T11:55:50.295Z,18.86
2018-11-10T11:58:20.192Z,18.76
2018-11-10T12:00:49.925Z,18.12
2018-11-10T12:03:19.914Z,19.07
2018-11-10T12:05:49.781Z,18.98
2018-11-10T12:08:19.841Z,18.62
2018-11-10T12:10:50.930Z,18.44
2018-11-10T12:13:22.231Z,19.08
2018-11-10T12:15:52.656Z,19.12
2018-11-10T12:18:23.180Z,18.63
2018-11-10T12:20:54.168Z,18.65
2018-11-10T12:23:24.262Z,18.70
2018-11-10T12:25:54.399Z,17.35
2018-11-10T12:28:25.179Z,17.91
2018-11-10T12:30:55.340Z,17.51
2018-11-10T12:33:31.777Z,17.79
2018-11-10T12:36:02.974Z,18.32
2018-11-10T12:38:33.301Z,18.05
2018-11-10T12:41:03.783Z,18.06
2018-11-10T12:43:35.189Z,17.59
2018-11-10T12:46:05.058Z,17.28
2018-11-10T12:48:34.517Z,17.97
2018-11-10T12:51:04.481Z,17.72
2018-11-10T12:53:34.504Z,17.61
2018-11-10T12:56:05.466Z,17.81
2018-11-10T12:58:35.488Z,18.28
2018-11-10T13:01:05.229Z,18.96
2018-11-10T13:03:35.429Z,18.37
2018-11-10T13:06:06.116Z,18.82
2018-11-10T13:08:37.155Z,17.63
2018-11-10T13:11:07.491Z,17.32
2018-11-10T13:13:40.989Z,17.05
2018-11-10T13:16:11.622Z,16.74
2018-11-10T13:18:41.582Z,16.56
2018-11-10T13:21:13.008Z,16.36
2018-11-10T13:23:44.245Z,16.90
2018-11-10T13:26:15.463Z,17.07
2018-11-10T13:28:47.441Z,17.18
2018-11-10T13:31:17.720Z,17.02
2018-11-10T13:34:56.904Z,16.78
2018-11-10T13:37:28.030Z,17.19
2018-11-10T13:39:57.849Z,16.31
2018-11-10T13:42:28.175Z,16.40
2018-11-10T13:44:58.386Z,16.51
2018-11-10T13:47:28.762Z,16.41
2018-11-10T13:50:00.149Z,16.75
2018-11-10T13:52:30.390Z,16.80
2018-11-10T13:55:01.052Z,16.72
2018-11-10T13:57:31.531Z,16.58
2018-11-10T14:00:01.227Z,16.74
2018-11-10T14:02:32.515Z,16.66
2018-11-10T14:05:02.172Z,16.75
2018-11-10T14:07:31.848Z,16.63
2018-11-10T14:10:01.615Z,16.69
2018-11-10T14:12:32.254Z,16.97
2018-11-10T14:15:02.732Z,16.88
2018-11-10T14:17:32.596Z,16.82
2018-11-10T14:20:02.420Z,16.69
2018-11-10T14:22:32.786Z,16.81
2018-11-10T14:25:02.375Z,16.73
2018-11-10T14:27:32.042Z,16.75
2018-11-10T14:30:02.112Z,16.61
2018-11-10T14:32:32.178Z,16.52
2018-11-10T14:35:04.350Z,16.45
2018-11-10T14:37:37.287Z,16.38
2018-11-10T14:40:11.816Z,16.32
2018-11-10T14:42:43.653Z,16.29
2018-11-10T14:45:20.555Z,16.36
2018-11-10T14:47:51.677Z,16.09
2018-11-10T14:50:23.897Z,15.97
2018-11-10T14:52:55.099Z,15.78
2018-11-10T14:55:26.659Z,15.60
2018-11-10T14:57:58.611Z,15.50
2018-11-10T15:00:31.570Z,15.39
2018-11-10T15:03:02.699Z,15.47
2018-11-10T15:05:35.900Z,15.44
2018-11-10T15:08:07.595Z,15.50
2018-11-10T15:10:38.728Z,15.51
2018-11-10T15:13:12.139Z,15.37
2018-11-10T15:15:44.627Z,15.25
2018-11-10T15:18:19.043Z,15.19
2018-11-10T15:20:54.496Z,15.17
2018-11-10T15:23:26.812Z,15.03
2018-11-10T15:25:57.549Z,14.81
2018-11-10T15:28:32.297Z,14.78
2018-11-10T15:31:06.179Z,14.69
2018-11-10T15:33:41.011Z,14.81
2018-11-10T15:36:20.398Z,14.64
2018-11-10T15:38:53.750Z,14.49
2018-11-10T15:41:27.471Z,14.41
2018-11-10T15:44:03.590Z,14.43
2018-11-10T15:46:39.239Z,14.46
2018-11-10T15:49:18.159Z,14.50
2018-11-10T15:51:57.227Z,14.39
2018-11-10T15:54:30.690Z,14.36
2018-11-10T15:57:02.794Z,14.39
2018-11-10T15:59:33.890Z,14.43
2018-11-10T16:02:05.372Z,14.41
2018-11-10T16:04:39.613Z,14.45
2018-11-10T16:07:10.783Z,14.51
2018-11-10T16:09:45.813Z,14.28
2018-11-10T16:12:17.001Z,14.46
2018-11-10T16:14:48.843Z,14.34
2018-11-10T16:17:27.432Z,14.40
2018-11-10T16:20:03.420Z,14.43
2018-11-10T16:22:35.502Z,14.40
2018-11-10T16:25:10.387Z,14.43
2018-11-10T16:27:42.174Z,14.07
2018-11-10T16:32:54.364Z,14.14
2018-11-10T16:35:29.399Z,14.14
2018-11-10T16:38:05.057Z,14.18
2018-11-10T16:40:40.258Z,14.02
2018-11-10T16:43:16.650Z,13.93
2018-11-10T16:45:53.017Z,14.08
2018-11-10T16:48:29.638Z,14.06
2018-11-10T16:51:01.713Z,14.15
2018-11-10T16:53:33.280Z,13.93
2018-11-10T16:56:14.299Z,13.91
2018-11-10T16:58:50.706Z,13.83
2018-11-10T17:01:22.680Z,13.76
2018-11-10T17:03:58.290Z,13.93
2018-11-10T17:09:10.923Z,13.96
2018-11-10T17:11:44.833Z,14.00
2018-11-10T17:14:15.124Z,13.96
2018-11-10T17:16:46.949Z,13.86
2018-11-10T17:19:24.682Z,13.93
2018-11-10T17:21:58.555Z,13.91
2018-11-10T17:24:34.007Z,13.92
2018-11-10T17:27:06.997Z,14.02
2018-11-10T17:29:55.424Z,14.06
2018-11-10T17:32:31.285Z,13.95
2018-11-10T17:35:07.545Z,14.00
2018-11-10T17:37:38.319Z,13.95
2018-11-10T17:40:12.098Z,13.99
2018-11-10T17:42:48.308Z,14.08
2018-11-10T17:45:19.553Z,14.02
2018-11-10T17:47:50.977Z,14.04
2018-11-10T17:50:22.529Z,13.92
2018-11-10T17:53:00.297Z,13.95
2018-11-10T17:55:32.595Z,13.96
2018-11-10T17:58:05.386Z,13.91
2018-11-10T18:00:36.843Z,13.78
2018-11-10T18:03:09.232Z,13.70
2018-11-10T18:05:43.787Z,13.72
2018-11-10T18:08:18.018Z,13.73
2018-11-10T18:10:50.438Z,13.75
2018-11-10T18:13:24.097Z,13.70
2018-11-10T18:15:57.532Z,13.50
2018-11-10T18:18:29.520Z,13.75
2018-11-10T18:21:01.859Z,13.79
2018-11-10T18:23:34.781Z,13.74
2018-11-10T18:26:08.662Z,13.62
2018-11-10T18:28:41.554Z,13.50
2018-11-10T18:31:12.034Z,13.58
2018-11-10T18:33:50.639Z,13.45
2018-11-10T18:36:24.073Z,13.36
2018-11-10T18:38:58.657Z,13.41
2018-11-10T18:41:29.931Z,13.40
2018-11-10T18:44:05.153Z,13.31
2018-11-10T18:46:42.358Z,13.40
2018-11-10T18:49:18.660Z,13.40
2018-11-10T18:51:50.719Z,13.43
2018-11-10T18:54:27.157Z,13.39
2018-11-10T18:57:06.331Z,13.37
2018-11-10T18:59:36.891Z,13.38
2018-11-10T19:02:07.549Z,13.14
2018-11-10T19:04:40.575Z,13.11
2018-11-10T19:07:12.713Z,13.05
2018-11-10T19:09:44.910Z,12.81
2018-11-10T19:12:15.297Z,13.07
2018-11-10T19:14:48.312Z,12.69
2018-11-10T19:17:19.919Z,12.35
2018-11-10T19:19:50.912Z,12.05
2018-11-10T19:22:25.026Z,11.86
2018-11-10T19:25:05.385Z,11.97
2018-11-10T19:27:37.625Z,11.99
2018-11-10T19:30:14.514Z,11.91
2018-11-10T19:32:49.162Z,11.97
2018-11-10T19:35:28.083Z,12.07
2018-11-10T19:38:00.747Z,11.91
2018-11-10T19:40:34.249Z,11.83
2018-11-10T19:43:07.076Z,11.77
2018-11-10T19:45:39.426Z,11.69
2018-11-10T19:48:14.556Z,11.66
2018-11-10T19:50:44.616Z,11.57
2018-11-10T19:53:18.972Z,11.53
2018-11-10T19:55:51.205Z,11.53
2018-11-10T19:58:24.467Z,11.51
2018-11-10T20:00:56.548Z,11.51
2018-11-10T20:03:28.379Z,11.49
2018-11-10T20:06:02.649Z,11.53
2018-11-10T20:08:34.844Z,11.47
2018-11-10T20:11:06.604Z,11.44
2018-11-10T20:13:37.959Z,11.51
2018-11-10T20:16:08.839Z,11.53
2018-11-10T20:18:42.137Z,11.50
2018-11-10T20:21:16.974Z,11.52
2018-11-10T20:23:48.689Z,11.51
2018-11-10T20:26:21.694Z,11.44
2018-11-10T20:28:52.812Z,11.52
2018-11-10T20:31:25.061Z,11.44
2018-11-10T20:33:56.490Z,11.49
2018-11-10T20:36:26.735Z,11.55
2018-11-10T20:38:56.583Z,11.43
2018-11-10T20:41:29.151Z,11.31
2018-11-10T20:43:59.929Z,11.43
2018-11-10T20:46:34.374Z,11.23
2018-11-10T20:49:05.816Z,11.06
2018-11-10T20:51:36.265Z,10.99
2018-11-10T20:54:06.938Z,10.74
2018-11-10T20:56:39.155Z,10.59
2018-11-10T20:59:11.020Z,10.38
2018-11-10T21:01:42.252Z,10.44
2018-11-10T21:04:18.769Z,10.45
2018-11-10T21:06:50.477Z,10.37
2018-11-10T21:09:21.928Z,9.95
2018-11-10T21:11:51.532Z,10.07
2018-11-10T21:14:22.680Z,10.25
2018-11-10T21:16:54.555Z,10.22
2018-11-10T21:19:53.206Z,9.74
2018-11-10T21:22:23.221Z,10.41
2018-11-10T21:24:54.490Z,10.51
2018-11-10T21:27:28.409Z,10.57
2018-11-10T21:29:59.747Z,10.57
2018-11-10T21:32:35.542Z,10.64
2018-11-10T21:35:06.297Z,10.67
2018-11-10T21:37:39.870Z,10.66
2018-11-10T21:40:17.298Z,10.69
2018-11-10T21:42:48.049Z,10.64
2018-11-10T21:45:18.724Z,10.66
2018-11-10T21:47:48.642Z,10.49
2018-11-10T21:50:20.414Z,10.57
2018-11-10T21:52:52.366Z,10.57
2018-11-10T21:55:25.726Z,10.36
2018-11-10T21:57:56.242Z,10.39
2018-11-10T22:00:27.750Z,10.52
2018-11-10T22:03:00.657Z,10.69
2018-11-10T22:05:30.712Z,10.69
2018-11-10T22:08:00.936Z,10.32
2018-11-10T22:10:30.477Z,10.28
2018-11-10T22:13:00.064Z,10.26
2018-11-10T22:15:30.147Z,10.11
2018-11-10T22:18:00.165Z,10.01
2018-11-10T22:20:30.881Z,9.81
2018-11-10T22:23:00.714Z,9.61
2018-11-10T22:25:30.546Z,9.80
2018-11-10T22:28:02.637Z,10.03
2018-11-10T22:30:32.647Z,9.87
2018-11-10T22:33:02.336Z,9.69
2018-11-10T22:35:32.982Z,9.85
2018-11-10T22:38:02.557Z,9.68
2018-11-10T22:40:32.116Z,9.44
2018-11-10T22:43:03.218Z,9.56
2018-11-10T22:45:32.926Z,9.58
2018-11-10T22:48:02.798Z,9.50
2018-11-10T22:50:33.516Z,9.75
2018-11-10T22:53:03.361Z,9.60
2018-11-10T22:55:33.168Z,9.86
2018-11-10T22:58:03.064Z,9.57
2018-11-10T23:00:33.063Z,9.43
2018-11-10T23:03:02.915Z,9.52
2018-11-10T23:05:32.522Z,9.53
2018-11-10T23:08:02.667Z,9.48
2018-11-10T23:10:32.308Z,9.56
2018-11-10T23:13:02.135Z,9.58
2018-11-10T23:15:31.781Z,9.61
2018-11-10T23:18:01.989Z,9.74
2018-11-10T23:20:31.694Z,9.54
2018-11-10T23:23:03.679Z,9.54
2018-11-10T23:25:33.228Z,9.67
2018-11-10T23:28:03.084Z,9.61
2018-11-10T23:30:33.217Z,9.56
2018-11-10T23:33:03.198Z,9.55
2018-11-10T23:35:32.771Z,9.52
2018-11-10T23:38:02.675Z,9.45
2018-11-10T23:40:33.808Z,9.46
2018-11-10T23:43:04.018Z,9.47
2018-11-10T23:45:33.928Z,9.53
2018-11-10T23:48:03.617Z,9.63
2018-11-10T23:50:33.626Z,9.56
2018-11-10T23:53:03.542Z,9.60
2018-11-10T23:55:33.318Z,9.86
2018-11-10T23:58:03.188Z,10.06
